sensor_id;sensor_type;location;lat;lon;timestamp;P1;durP1;ratioP1;P2;durP2;ratioP2
4547;SDS011;2286;51.570;7.090;2022-09-09T00:02:24;3.27;;;1.93;;
4547;SDS011;2286;51.570;7.090;2022-09-09T00:04:58;2.40;;;1.77;;
4547;SDS011;2286;51.570;7.090;2022-09-09T00:07:32;3.63;;;2.07;;
4547;SDS011;2286;51.570;7.090;2022-09-09T00:10:09;3.60;;;1.80;;
4547;SDS011;2286;51.570;7.090;2022-09-09T00:12:47;4.27;;;2.20;;
4547;SDS011;2286;51.570;7.090;2022-09-09T00:15:22;3.57;;;1.80;;
4547;SDS011;2286;51.570;7.090;2022-09-09T00:17:55;5.20;;;2.03;;
4547;SDS011;2286;51.570;7.090;2022-09-09T00:20:32;2.30;;;1.40;;
4547;SDS011;2286;51.570;7.090;2022-09-09T00:23:04;3.70;;;1.50;;
4547;SDS011;2286;51.570;7.090;2022-09-09T00:25:40;2.77;;;1.47;;
4547;SDS011;2286;51.570;7.090;2022-09-09T00:28:16;3.80;;;1.67;;
4547;SDS011;2286;51.570;7.090;2022-09-09T00:30:46;2.57;;;1.53;;
4547;SDS011;2286;51.570;7.090;2022-09-09T00:33:15;3.00;;;2.07;;
4547;SDS011;2286;51.570;7.090;2022-09-09T00:35:47;3.80;;;3.20;;
4547;SDS011;2286;51.570;7.090;2022-09-09T00:38:17;2.80;;;1.90;;
4547;SDS011;2286;51.570;7.090;2022-09-09T00:40:49;4.53;;;1.83;;
4547;SDS011;2286;51.570;7.090;2022-09-09T00:43:25;3.33;;;1.40;;
4547;SDS011;2286;51.570;7.090;2022-09-09T00:48:58;3.30;;;1.73;;
4547;SDS011;2286;51.570;7.090;2022-09-09T00:51:34;1.67;;;1.57;;
4547;SDS011;2286;51.570;7.090;2022-09-09T00:54:13;4.60;;;1.90;;
4547;SDS011;2286;51.570;7.090;2022-09-09T00:56:51;2.63;;;1.60;;
4547;SDS011;2286;51.570;7.090;2022-09-09T00:59:34;1.80;;;1.40;;
4547;SDS011;2286;51.570;7.090;2022-09-09T01:02:13;2.80;;;1.70;;
4547;SDS011;2286;51.570;7.090;2022-09-09T01:04:53;5.37;;;2.10;;
4547;SDS011;2286;51.570;7.090;2022-09-09T01:07:20;2.73;;;1.80;;
4547;SDS011;2286;51.570;7.090;2022-09-09T01:09:51;5.07;;;2.70;;
4547;SDS011;2286;51.570;7.090;2022-09-09T01:12:25;2.80;;;1.80;;
4547;SDS011;2286;51.570;7.090;2022-09-09T01:15:03;2.40;;;1.83;;
4547;SDS011;2286;51.570;7.090;2022-09-09T01:17:44;3.23;;;2.43;;
4547;SDS011;2286;51.570;7.090;2022-09-09T01:20:23;2.27;;;1.83;;
4547;SDS011;2286;51.570;7.090;2022-09-09T01:22:57;3.50;;;2.20;;
4547;SDS011;2286;51.570;7.090;2022-09-09T01:26:04;4.97;;;2.33;;
4547;SDS011;2286;51.570;7.090;2022-09-09T01:28:44;4.43;;;2.40;;
4547;SDS011;2286;51.570;7.090;2022-09-09T01:31:15;10.23;;;3.00;;
4547;SDS011;2286;51.570;7.090;2022-09-09T01:33:45;5.57;;;2.43;;
4547;SDS011;2286;51.570;7.090;2022-09-09T01:36:12;15.37;;;3.50;;
4547;SDS011;2286;51.570;7.090;2022-09-09T01:38:44;4.17;;;3.37;;
4547;SDS011;2286;51.570;7.090;2022-09-09T01:41:12;6.73;;;3.43;;
4547;SDS011;2286;51.570;7.090;2022-09-09T01:43:40;5.70;;;3.97;;
4547;SDS011;2286;51.570;7.090;2022-09-09T01:46:07;7.17;;;3.50;;
4547;SDS011;2286;51.570;7.090;2022-09-09T01:48:34;7.47;;;3.57;;
4547;SDS011;2286;51.570;7.090;2022-09-09T01:51:01;6.97;;;4.70;;
4547;SDS011;2286;51.570;7.090;2022-09-09T01:53:28;6.23;;;3.67;;
4547;SDS011;2286;51.570;7.090;2022-09-09T01:55:58;8.07;;;3.23;;
4547;SDS011;2286;51.570;7.090;2022-09-09T01:58:37;3.93;;;3.20;;
4547;SDS011;2286;51.570;7.090;2022-09-09T02:01:15;10.40;;;4.30;;
4547;SDS011;2286;51.570;7.090;2022-09-09T02:03:51;5.17;;;2.83;;
4547;SDS011;2286;51.570;7.090;2022-09-09T02:06:24;7.33;;;2.43;;
4547;SDS011;2286;51.570;7.090;2022-09-09T02:08:57;4.20;;;2.00;;
4547;SDS011;2286;51.570;7.090;2022-09-09T02:11:26;5.20;;;2.37;;
4547;SDS011;2286;51.570;7.090;2022-09-09T02:13:57;3.87;;;2.60;;
4547;SDS011;2286;51.570;7.090;2022-09-09T02:16:28;2.80;;;2.00;;
4547;SDS011;2286;51.570;7.090;2022-09-09T02:19:02;2.33;;;2.13;;
4547;SDS011;2286;51.570;7.090;2022-09-09T02:21:32;3.83;;;2.20;;
4547;SDS011;2286;51.570;7.090;2022-09-09T02:24:02;2.20;;;2.00;;
4547;SDS011;2286;51.570;7.090;2022-09-09T02:26:33;3.50;;;2.13;;
4547;SDS011;2286;51.570;7.090;2022-09-09T02:29:05;2.70;;;2.07;;
4547;SDS011;2286;51.570;7.090;2022-09-09T02:31:35;2.80;;;1.90;;
4547;SDS011;2286;51.570;7.090;2022-09-09T02:34:04;4.30;;;2.20;;
4547;SDS011;2286;51.570;7.090;2022-09-09T02:36:35;3.07;;;2.40;;
4547;SDS011;2286;51.570;7.090;2022-09-09T02:39:04;2.23;;;2.13;;
4547;SDS011;2286;51.570;7.090;2022-09-09T02:41:34;7.20;;;3.50;;
4547;SDS011;2286;51.570;7.090;2022-09-09T02:44:08;26.30;;;9.13;;
4547;SDS011;2286;51.570;7.090;2022-09-09T02:46:45;14.37;;;5.77;;
4547;SDS011;2286;51.570;7.090;2022-09-09T02:49:25;9.27;;;4.60;;
4547;SDS011;2286;51.570;7.090;2022-09-09T02:52:01;7.20;;;3.40;;
4547;SDS011;2286;51.570;7.090;2022-09-09T02:54:32;6.57;;;2.97;;
4547;SDS011;2286;51.570;7.090;2022-09-09T02:57:02;4.13;;;2.77;;
4547;SDS011;2286;51.570;7.090;2022-09-09T02:59:36;4.13;;;3.17;;
4547;SDS011;2286;51.570;7.090;2022-09-09T03:02:03;4.93;;;3.40;;
4547;SDS011;2286;51.570;7.090;2022-09-09T03:04:31;6.07;;;3.30;;
4547;SDS011;2286;51.570;7.090;2022-09-09T03:06:58;4.80;;;3.50;;
4547;SDS011;2286;51.570;7.090;2022-09-09T03:09:25;5.20;;;3.60;;
4547;SDS011;2286;51.570;7.090;2022-09-09T03:11:52;4.50;;;3.33;;
4547;SDS011;2286;51.570;7.090;2022-09-09T03:14:21;5.17;;;3.80;;
4547;SDS011;2286;51.570;7.090;2022-09-09T03:16:51;9.77;;;3.13;;
4547;SDS011;2286;51.570;7.090;2022-09-09T03:19:19;4.03;;;3.70;;
4547;SDS011;2286;51.570;7.090;2022-09-09T03:21:47;4.87;;;3.10;;
4547;SDS011;2286;51.570;7.090;2022-09-09T03:24:14;8.07;;;3.43;;
4547;SDS011;2286;51.570;7.090;2022-09-09T03:26:42;6.07;;;3.10;;
4547;SDS011;2286;51.570;7.090;2022-09-09T03:29:10;4.70;;;3.37;;
4547;SDS011;2286;51.570;7.090;2022-09-09T03:31:38;4.93;;;4.20;;
4547;SDS011;2286;51.570;7.090;2022-09-09T03:34:07;5.33;;;3.70;;
4547;SDS011;2286;51.570;7.090;2022-09-09T03:36:34;5.60;;;4.13;;
4547;SDS011;2286;51.570;7.090;2022-09-09T03:39:02;7.20;;;4.00;;
4547;SDS011;2286;51.570;7.090;2022-09-09T03:41:30;4.43;;;3.90;;
4547;SDS011;2286;51.570;7.090;2022-09-09T03:43:58;6.03;;;4.20;;
4547;SDS011;2286;51.570;7.090;2022-09-09T03:46:26;4.67;;;4.20;;
4547;SDS011;2286;51.570;7.090;2022-09-09T03:48:53;7.23;;;4.77;;
4547;SDS011;2286;51.570;7.090;2022-09-09T03:51:21;9.67;;;4.80;;
4547;SDS011;2286;51.570;7.090;2022-09-09T03:53:48;6.30;;;4.87;;
4547;SDS011;2286;51.570;7.090;2022-09-09T03:56:15;5.87;;;4.30;;
4547;SDS011;2286;51.570;7.090;2022-09-09T03:58:42;12.00;;;5.47;;
4547;SDS011;2286;51.570;7.090;2022-09-09T04:01:11;8.30;;;5.60;;
4547;SDS011;2286;51.570;7.090;2022-09-09T04:03:39;7.60;;;5.60;;
4547;SDS011;2286;51.570;7.090;2022-09-09T04:06:07;8.43;;;5.57;;
4547;SDS011;2286;51.570;7.090;2022-09-09T04:08:38;8.97;;;5.13;;
4547;SDS011;2286;51.570;7.090;2022-09-09T04:11:06;6.70;;;5.33;;
4547;SDS011;2286;51.570;7.090;2022-09-09T04:13:34;9.90;;;5.77;;
4547;SDS011;2286;51.570;7.090;2022-09-09T04:16:04;7.33;;;5.60;;
4547;SDS011;2286;51.570;7.090;2022-09-09T04:18:32;11.07;;;6.20;;
4547;SDS011;2286;51.570;7.090;2022-09-09T04:21:00;11.07;;;6.53;;
4547;SDS011;2286;51.570;7.090;2022-09-09T04:23:28;8.37;;;6.27;;
4547;SDS011;2286;51.570;7.090;2022-09-09T04:25:58;9.27;;;7.50;;
4547;SDS011;2286;51.570;7.090;2022-09-09T04:28:26;9.33;;;8.53;;
4547;SDS011;2286;51.570;7.090;2022-09-09T04:30:54;10.37;;;7.50;;
4547;SDS011;2286;51.570;7.090;2022-09-09T04:33:23;13.63;;;8.63;;
4547;SDS011;2286;51.570;7.090;2022-09-09T04:35:52;9.10;;;8.30;;
4547;SDS011;2286;51.570;7.090;2022-09-09T04:38:20;9.23;;;7.97;;
4547;SDS011;2286;51.570;7.090;2022-09-09T04:40:49;9.70;;;8.70;;
4547;SDS011;2286;51.570;7.090;2022-09-09T04:43:20;10.00;;;9.00;;
4547;SDS011;2286;51.570;7.090;2022-09-09T04:45:48;11.17;;;9.50;;
4547;SDS011;2286;51.570;7.090;2022-09-09T04:48:16;11.50;;;8.10;;
4547;SDS011;2286;51.570;7.090;2022-09-09T04:50:43;8.47;;;7.10;;
4547;SDS011;2286;51.570;7.090;2022-09-09T04:53:19;7.13;;;6.20;;
4547;SDS011;2286;51.570;7.090;2022-09-09T04:55:47;8.50;;;6.17;;
4547;SDS011;2286;51.570;7.090;2022-09-09T04:58:14;6.93;;;5.40;;
4547;SDS011;2286;51.570;7.090;2022-09-09T05:00:43;6.03;;;5.17;;
4547;SDS011;2286;51.570;7.090;2022-09-09T05:03:11;14.93;;;6.50;;
4547;SDS011;2286;51.570;7.090;2022-09-09T05:05:38;8.30;;;4.80;;
4547;SDS011;2286;51.570;7.090;2022-09-09T05:08:06;4.63;;;4.10;;
4547;SDS011;2286;51.570;7.090;2022-09-09T05:10:36;5.60;;;3.90;;
4547;SDS011;2286;51.570;7.090;2022-09-09T05:13:04;11.73;;;4.47;;
4547;SDS011;2286;51.570;7.090;2022-09-09T05:15:32;5.70;;;3.83;;
4547;SDS011;2286;51.570;7.090;2022-09-09T05:18:02;9.13;;;4.27;;
4547;SDS011;2286;51.570;7.090;2022-09-09T05:20:29;4.40;;;4.03;;
4547;SDS011;2286;51.570;7.090;2022-09-09T05:22:56;7.90;;;4.07;;
4547;SDS011;2286;51.570;7.090;2022-09-09T05:25:23;6.07;;;4.50;;
4547;SDS011;2286;51.570;7.090;2022-09-09T05:27:51;5.73;;;4.40;;
4547;SDS011;2286;51.570;7.090;2022-09-09T05:30:19;6.60;;;4.30;;
4547;SDS011;2286;51.570;7.090;2022-09-09T05:32:47;8.13;;;4.03;;
4547;SDS011;2286;51.570;7.090;2022-09-09T05:35:16;11.50;;;5.40;;
4547;SDS011;2286;51.570;7.090;2022-09-09T05:37:44;6.53;;;4.03;;
4547;SDS011;2286;51.570;7.090;2022-09-09T05:40:11;8.30;;;3.57;;
4547;SDS011;2286;51.570;7.090;2022-09-09T05:42:39;4.73;;;3.80;;
4547;SDS011;2286;51.570;7.090;2022-09-09T05:45:07;4.70;;;3.83;;
4547;SDS011;2286;51.570;7.090;2022-09-09T05:47:35;12.20;;;3.90;;
4547;SDS011;2286;51.570;7.090;2022-09-09T05:50:03;5.10;;;3.70;;
4547;SDS011;2286;51.570;7.090;2022-09-09T05:52:32;5.23;;;3.80;;
4547;SDS011;2286;51.570;7.090;2022-09-09T05:54:59;8.50;;;3.70;;
4547;SDS011;2286;51.570;7.090;2022-09-09T05:57:26;8.93;;;4.07;;
4547;SDS011;2286;51.570;7.090;2022-09-09T05:59:53;7.90;;;4.30;;
4547;SDS011;2286;51.570;7.090;2022-09-09T06:02:21;5.57;;;3.90;;
4547;SDS011;2286;51.570;7.090;2022-09-09T06:04:48;8.13;;;4.47;;
4547;SDS011;2286;51.570;7.090;2022-09-09T06:07:15;9.03;;;4.50;;
4547;SDS011;2286;51.570;7.090;2022-09-09T06:09:44;6.60;;;4.10;;
4547;SDS011;2286;51.570;7.090;2022-09-09T06:12:11;10.23;;;4.10;;
4547;SDS011;2286;51.570;7.090;2022-09-09T06:14:38;5.53;;;3.53;;
4547;SDS011;2286;51.570;7.090;2022-09-09T06:17:05;7.53;;;3.90;;
4547;SDS011;2286;51.570;7.090;2022-09-09T06:19:32;9.93;;;4.10;;
4547;SDS011;2286;51.570;7.090;2022-09-09T06:21:59;5.27;;;3.60;;
4547;SDS011;2286;51.570;7.090;2022-09-09T06:24:26;6.70;;;4.20;;
4547;SDS011;2286;51.570;7.090;2022-09-09T06:26:56;6.60;;;3.70;;
4547;SDS011;2286;51.570;7.090;2022-09-09T06:29:23;6.70;;;4.10;;
4547;SDS011;2286;51.570;7.090;2022-09-09T06:31:51;10.83;;;4.03;;
4547;SDS011;2286;51.570;7.090;2022-09-09T06:34:18;5.80;;;3.53;;
4547;SDS011;2286;51.570;7.090;2022-09-09T06:36:45;5.80;;;3.90;;
4547;SDS011;2286;51.570;7.090;2022-09-09T06:39:13;10.20;;;3.70;;
4547;SDS011;2286;51.570;7.090;2022-09-09T06:41:40;5.93;;;3.70;;
4547;SDS011;2286;51.570;7.090;2022-09-09T06:44:10;5.70;;;3.93;;
4547;SDS011;2286;51.570;7.090;2022-09-09T06:46:37;3.50;;;2.97;;
4547;SDS011;2286;51.570;7.090;2022-09-09T06:49:05;6.80;;;3.70;;
4547;SDS011;2286;51.570;7.090;2022-09-09T06:51:33;6.40;;;3.70;;
4547;SDS011;2286;51.570;7.090;2022-09-09T06:54:02;7.43;;;3.30;;
4547;SDS011;2286;51.570;7.090;2022-09-09T06:56:31;7.03;;;4.30;;
4547;SDS011;2286;51.570;7.090;2022-09-09T06:59:01;5.80;;;3.03;;
4547;SDS011;2286;51.570;7.090;2022-09-09T07:01:32;6.53;;;2.90;;
4547;SDS011;2286;51.570;7.090;2022-09-09T07:04:00;9.43;;;3.87;;
4547;SDS011;2286;51.570;7.090;2022-09-09T07:06:29;5.00;;;2.83;;
4547;SDS011;2286;51.570;7.090;2022-09-09T07:08:58;5.13;;;2.30;;
4547;SDS011;2286;51.570;7.090;2022-09-09T07:11:27;7.00;;;2.87;;
4547;SDS011;2286;51.570;7.090;2022-09-09T07:13:56;8.37;;;2.43;;
4547;SDS011;2286;51.570;7.090;2022-09-09T07:16:25;9.13;;;2.70;;
4547;SDS011;2286;51.570;7.090;2022-09-09T07:18:55;4.43;;;2.00;;
4547;SDS011;2286;51.570;7.090;2022-09-09T07:21:23;6.60;;;2.40;;
4547;SDS011;2286;51.570;7.090;2022-09-09T07:23:52;4.23;;;2.10;;
4547;SDS011;2286;51.570;7.090;2022-09-09T07:26:20;6.40;;;2.30;;
4547;SDS011;2286;51.570;7.090;2022-09-09T07:28:49;5.17;;;2.27;;
4547;SDS011;2286;51.570;7.090;2022-09-09T07:31:17;4.73;;;2.00;;
4547;SDS011;2286;51.570;7.090;2022-09-09T07:33:46;5.23;;;2.00;;
4547;SDS011;2286;51.570;7.090;2022-09-09T07:36:15;8.13;;;2.50;;
4547;SDS011;2286;51.570;7.090;2022-09-09T07:38:44;5.33;;;2.23;;
4547;SDS011;2286;51.570;7.090;2022-09-09T07:41:14;4.50;;;2.20;;
4547;SDS011;2286;51.570;7.090;2022-09-09T07:43:43;4.80;;;1.80;;
4547;SDS011;2286;51.570;7.090;2022-09-09T07:46:17;4.80;;;1.70;;
4547;SDS011;2286;51.570;7.090;2022-09-09T07:48:45;3.70;;;1.90;;
4547;SDS011;2286;51.570;7.090;2022-09-09T07:51:18;4.80;;;1.83;;
4547;SDS011;2286;51.570;7.090;2022-09-09T07:53:47;4.40;;;1.80;;
4547;SDS011;2286;51.570;7.090;2022-09-09T07:56:18;5.50;;;2.27;;
4547;SDS011;2286;51.570;7.090;2022-09-09T07:58:47;6.43;;;2.23;;
4547;SDS011;2286;51.570;7.090;2022-09-09T08:01:15;6.03;;;2.13;;
4547;SDS011;2286;51.570;7.090;2022-09-09T08:03:44;7.83;;;3.00;;
4547;SDS011;2286;51.570;7.090;2022-09-09T08:06:11;6.73;;;1.90;;
4547;SDS011;2286;51.570;7.090;2022-09-09T08:08:40;4.50;;;2.07;;
4547;SDS011;2286;51.570;7.090;2022-09-09T08:11:09;7.57;;;2.43;;
4547;SDS011;2286;51.570;7.090;2022-09-09T08:13:41;4.40;;;1.97;;
4547;SDS011;2286;51.570;7.090;2022-09-09T08:16:10;6.90;;;1.93;;
4547;SDS011;2286;51.570;7.090;2022-09-09T08:18:38;3.73;;;1.67;;
4547;SDS011;2286;51.570;7.090;2022-09-09T08:21:09;5.10;;;1.43;;
4547;SDS011;2286;51.570;7.090;2022-09-09T08:23:38;3.23;;;1.73;;
4547;SDS011;2286;51.570;7.090;2022-09-09T08:26:09;4.93;;;2.00;;
4547;SDS011;2286;51.570;7.090;2022-09-09T08:28:37;5.03;;;1.80;;
4547;SDS011;2286;51.570;7.090;2022-09-09T08:31:10;7.33;;;2.20;;
4547;SDS011;2286;51.570;7.090;2022-09-09T08:33:38;5.30;;;1.47;;
4547;SDS011;2286;51.570;7.090;2022-09-09T08:36:06;5.83;;;2.17;;
4547;SDS011;2286;51.570;7.090;2022-09-09T08:38:36;5.40;;;1.83;;
4547;SDS011;2286;51.570;7.090;2022-09-09T08:41:07;4.13;;;1.57;;
4547;SDS011;2286;51.570;7.090;2022-09-09T08:43:47;3.47;;;1.70;;
4547;SDS011;2286;51.570;7.090;2022-09-09T08:46:18;5.00;;;1.70;;
4547;SDS011;2286;51.570;7.090;2022-09-09T08:48:52;3.80;;;1.90;;
4547;SDS011;2286;51.570;7.090;2022-09-09T08:51:25;3.83;;;2.00;;
4547;SDS011;2286;51.570;7.090;2022-09-09T08:53:55;4.83;;;1.43;;
4547;SDS011;2286;51.570;7.090;2022-09-09T08:56:29;4.20;;;1.70;;
4547;SDS011;2286;51.570;7.090;2022-09-09T08:58:59;4.40;;;1.60;;
4547;SDS011;2286;51.570;7.090;2022-09-09T09:01:47;3.00;;;1.50;;
4547;SDS011;2286;51.570;7.090;2022-09-09T09:04:29;4.10;;;1.67;;
4547;SDS011;2286;51.570;7.090;2022-09-09T09:07:11;3.30;;;1.37;;
4547;SDS011;2286;51.570;7.090;2022-09-09T09:09:51;2.90;;;1.60;;
4547;SDS011;2286;51.570;7.090;2022-09-09T09:12:27;4.30;;;1.20;;
4547;SDS011;2286;51.570;7.090;2022-09-09T09:14:59;5.33;;;1.10;;
4547;SDS011;2286;51.570;7.090;2022-09-09T09:17:27;3.50;;;1.50;;
4547;SDS011;2286;51.570;7.090;2022-09-09T09:20:05;3.60;;;1.80;;
4547;SDS011;2286;51.570;7.090;2022-09-09T09:22:39;4.37;;;1.53;;
4547;SDS011;2286;51.570;7.090;2022-09-09T09:25:14;5.67;;;1.50;;
4547;SDS011;2286;51.570;7.090;2022-09-09T09:27:46;4.27;;;1.30;;
4547;SDS011;2286;51.570;7.090;2022-09-09T09:30:20;7.03;;;1.30;;
4547;SDS011;2286;51.570;7.090;2022-09-09T09:32:50;4.67;;;1.43;;
4547;SDS011;2286;51.570;7.090;2022-09-09T09:35:20;2.73;;;1.30;;
4547;SDS011;2286;51.570;7.090;2022-09-09T09:37:47;3.43;;;1.20;;
4547;SDS011;2286;51.570;7.090;2022-09-09T09:40:16;4.60;;;1.30;;
4547;SDS011;2286;51.570;7.090;2022-09-09T09:42:49;2.20;;;1.50;;
4547;SDS011;2286;51.570;7.090;2022-09-09T09:45:22;2.90;;;1.80;;
4547;SDS011;2286;51.570;7.090;2022-09-09T09:47:59;3.90;;;1.60;;
4547;SDS011;2286;51.570;7.090;2022-09-09T09:50:27;4.90;;;1.97;;
4547;SDS011;2286;51.570;7.090;2022-09-09T09:52:55;2.10;;;1.40;;
4547;SDS011;2286;51.570;7.090;2022-09-09T09:55:24;3.80;;;1.83;;
4547;SDS011;2286;51.570;7.090;2022-09-09T09:57:54;2.83;;;1.33;;
4547;SDS011;2286;51.570;7.090;2022-09-09T10:00:28;5.90;;;1.50;;
4547;SDS011;2286;51.570;7.090;2022-09-09T10:02:55;6.17;;;1.50;;
4547;SDS011;2286;51.570;7.090;2022-09-09T10:05:23;5.90;;;1.40;;
4547;SDS011;2286;51.570;7.090;2022-09-09T10:08:01;8.13;;;1.80;;
4547;SDS011;2286;51.570;7.090;2022-09-09T10:10:36;4.60;;;1.37;;
4547;SDS011;2286;51.570;7.090;2022-09-09T10:13:15;4.80;;;1.40;;
4547;SDS011;2286;51.570;7.090;2022-09-09T10:15:52;4.17;;;1.90;;
4547;SDS011;2286;51.570;7.090;2022-09-09T10:18:40;2.60;;;1.40;;
4547;SDS011;2286;51.570;7.090;2022-09-09T10:21:16;2.57;;;1.40;;
4547;SDS011;2286;51.570;7.090;2022-09-09T10:23:58;4.17;;;1.47;;
4547;SDS011;2286;51.570;7.090;2022-09-09T10:26:44;2.80;;;1.30;;
4547;SDS011;2286;51.570;7.090;2022-09-09T10:29:21;5.27;;;2.23;;
4547;SDS011;2286;51.570;7.090;2022-09-09T10:32:02;5.97;;;1.20;;
4547;SDS011;2286;51.570;7.090;2022-09-09T10:34:44;3.53;;;1.23;;
4547;SDS011;2286;51.570;7.090;2022-09-09T10:37:26;8.27;;;1.90;;
4547;SDS011;2286;51.570;7.090;2022-09-09T10:40:08;2.70;;;1.40;;
4547;SDS011;2286;51.570;7.090;2022-09-09T10:42:49;5.90;;;1.47;;
4547;SDS011;2286;51.570;7.090;2022-09-09T10:45:18;3.50;;;1.10;;
4547;SDS011;2286;51.570;7.090;2022-09-09T10:47:52;3.87;;;1.40;;
4547;SDS011;2286;51.570;7.090;2022-09-09T10:50:53;1.50;;;0.97;;
4547;SDS011;2286;51.570;7.090;2022-09-09T10:53:35;3.30;;;1.60;;
4547;SDS011;2286;51.570;7.090;2022-09-09T10:56:08;2.37;;;1.30;;
4547;SDS011;2286;51.570;7.090;2022-09-09T10:58:38;2.73;;;1.20;;
4547;SDS011;2286;51.570;7.090;2022-09-09T11:01:12;2.80;;;1.00;;
4547;SDS011;2286;51.570;7.090;2022-09-09T11:03:42;2.07;;;0.90;;
4547;SDS011;2286;51.570;7.090;2022-09-09T11:06:13;3.63;;;1.30;;
4547;SDS011;2286;51.570;7.090;2022-09-09T11:08:44;2.00;;;0.80;;
4547;SDS011;2286;51.570;7.090;2022-09-09T11:11:16;2.73;;;1.10;;
4547;SDS011;2286;51.570;7.090;2022-09-09T11:13:49;2.60;;;1.00;;
4547;SDS011;2286;51.570;7.090;2022-09-09T11:16:27;1.50;;;1.17;;
4547;SDS011;2286;51.570;7.090;2022-09-09T11:18:58;1.63;;;1.10;;
4547;SDS011;2286;51.570;7.090;2022-09-09T11:21:30;2.03;;;0.90;;
4547;SDS011;2286;51.570;7.090;2022-09-09T11:24:00;4.60;;;0.87;;
4547;SDS011;2286;51.570;7.090;2022-09-09T11:26:31;3.37;;;1.00;;
4547;SDS011;2286;51.570;7.090;2022-09-09T11:29:07;1.50;;;0.90;;
4547;SDS011;2286;51.570;7.090;2022-09-09T11:31:46;2.20;;;1.07;;
4547;SDS011;2286;51.570;7.090;2022-09-09T11:34:33;4.13;;;1.13;;
4547;SDS011;2286;51.570;7.090;2022-09-09T11:37:21;3.10;;;1.10;;
4547;SDS011;2286;51.570;7.090;2022-09-09T11:40:14;7.00;;;1.40;;
4547;SDS011;2286;51.570;7.090;2022-09-09T11:42:45;3.10;;;1.50;;
4547;SDS011;2286;51.570;7.090;2022-09-09T11:45:22;1.50;;;1.10;;
4547;SDS011;2286;51.570;7.090;2022-09-09T11:47:55;1.73;;;1.00;;
4547;SDS011;2286;51.570;7.090;2022-09-09T11:50:27;2.30;;;1.30;;
4547;SDS011;2286;51.570;7.090;2022-09-09T11:53:17;2.90;;;1.10;;
4547;SDS011;2286;51.570;7.090;2022-09-09T11:55:48;4.07;;;1.20;;
4547;SDS011;2286;51.570;7.090;2022-09-09T11:58:27;6.63;;;1.47;;
4547;SDS011;2286;51.570;7.090;2022-09-09T12:00:58;3.70;;;1.40;;
4547;SDS011;2286;51.570;7.090;2022-09-09T12:03:34;2.50;;;1.07;;
4547;SDS011;2286;51.570;7.090;2022-09-09T12:06:09;1.50;;;1.40;;
4547;SDS011;2286;51.570;7.090;2022-09-09T12:08:41;2.60;;;1.03;;
4547;SDS011;2286;51.570;7.090;2022-09-09T12:11:09;4.00;;;1.27;;
4547;SDS011;2286;51.570;7.090;2022-09-09T12:13:37;3.13;;;1.47;;
4547;SDS011;2286;51.570;7.090;2022-09-09T12:16:26;6.90;;;1.50;;
4547;SDS011;2286;51.570;7.090;2022-09-09T12:19:04;7.57;;;2.17;;
4547;SDS011;2286;51.570;7.090;2022-09-09T12:21:34;5.10;;;1.93;;
4547;SDS011;2286;51.570;7.090;2022-09-09T12:24:08;4.27;;;1.67;;
4547;SDS011;2286;51.570;7.090;2022-09-09T12:26:37;7.73;;;2.23;;
4547;SDS011;2286;51.570;7.090;2022-09-09T12:29:12;3.33;;;2.00;;
4547;SDS011;2286;51.570;7.090;2022-09-09T12:31:49;4.70;;;1.97;;
4547;SDS011;2286;51.570;7.090;2022-09-09T12:34:35;3.33;;;1.50;;
4547;SDS011;2286;51.570;7.090;2022-09-09T12:37:08;4.13;;;1.47;;
4547;SDS011;2286;51.570;7.090;2022-09-09T12:39:44;3.53;;;1.73;;
4547;SDS011;2286;51.570;7.090;2022-09-09T12:42:15;3.20;;;1.73;;
4547;SDS011;2286;51.570;7.090;2022-09-09T12:44:53;2.33;;;1.20;;
4547;SDS011;2286;51.570;7.090;2022-09-09T12:47:23;2.90;;;1.70;;
4547;SDS011;2286;51.570;7.090;2022-09-09T12:50:01;1.90;;;1.30;;
4547;SDS011;2286;51.570;7.090;2022-09-09T12:52:29;2.30;;;1.30;;
4547;SDS011;2286;51.570;7.090;2022-09-09T12:54:59;2.30;;;1.20;;
4547;SDS011;2286;51.570;7.090;2022-09-09T12:57:32;1.47;;;1.10;;
4547;SDS011;2286;51.570;7.090;2022-09-09T13:00:06;1.77;;;1.10;;
4547;SDS011;2286;51.570;7.090;2022-09-09T13:02:45;2.53;;;1.37;;
4547;SDS011;2286;51.570;7.090;2022-09-09T13:05:17;3.90;;;1.27;;
4547;SDS011;2286;51.570;7.090;2022-09-09T13:07:46;2.30;;;1.00;;
4547;SDS011;2286;51.570;7.090;2022-09-09T13:10:14;1.40;;;1.20;;
4547;SDS011;2286;51.570;7.090;2022-09-09T13:12:47;2.27;;;1.57;;
4547;SDS011;2286;51.570;7.090;2022-09-09T13:15:17;6.00;;;1.90;;
4547;SDS011;2286;51.570;7.090;2022-09-09T13:17:51;3.63;;;1.20;;
4547;SDS011;2286;51.570;7.090;2022-09-09T13:20:22;1.60;;;1.40;;
4547;SDS011;2286;51.570;7.090;2022-09-09T13:22:50;3.73;;;1.87;;
4547;SDS011;2286;51.570;7.090;2022-09-09T13:25:21;3.70;;;1.63;;
4547;SDS011;2286;51.570;7.090;2022-09-09T13:27:52;3.77;;;1.50;;
4547;SDS011;2286;51.570;7.090;2022-09-09T13:30:25;5.87;;;1.97;;
4547;SDS011;2286;51.570;7.090;2022-09-09T13:35:49;3.43;;;1.70;;
4547;SDS011;2286;51.570;7.090;2022-09-09T13:38:19;4.37;;;2.07;;
4547;SDS011;2286;51.570;7.090;2022-09-09T13:40:55;6.07;;;2.57;;
4547;SDS011;2286;51.570;7.090;2022-09-09T13:43:27;5.17;;;1.87;;
4547;SDS011;2286;51.570;7.090;2022-09-09T13:45:56;9.80;;;2.60;;
4547;SDS011;2286;51.570;7.090;2022-09-09T13:48:25;6.10;;;2.20;;
4547;SDS011;2286;51.570;7.090;2022-09-09T13:50:57;2.80;;;2.10;;
4547;SDS011;2286;51.570;7.090;2022-09-09T13:53:25;4.30;;;1.80;;
4547;SDS011;2286;51.570;7.090;2022-09-09T13:55:53;5.10;;;2.43;;
4547;SDS011;2286;51.570;7.090;2022-09-09T13:58:22;5.80;;;2.37;;
4547;SDS011;2286;51.570;7.090;2022-09-09T14:00:50;4.77;;;2.40;;
4547;SDS011;2286;51.570;7.090;2022-09-09T14:03:18;3.23;;;1.80;;
4547;SDS011;2286;51.570;7.090;2022-09-09T14:05:46;3.83;;;1.83;;
4547;SDS011;2286;51.570;7.090;2022-09-09T14:11:02;3.57;;;1.90;;
4547;SDS011;2286;51.570;7.090;2022-09-09T14:13:29;3.87;;;2.30;;
4547;SDS011;2286;51.570;7.090;2022-09-09T14:15:56;6.90;;;2.83;;
4547;SDS011;2286;51.570;7.090;2022-09-09T14:18:23;10.87;;;2.97;;
4547;SDS011;2286;51.570;7.090;2022-09-09T14:20:50;3.23;;;1.60;;
4547;SDS011;2286;51.570;7.090;2022-09-09T14:23:18;1.67;;;1.20;;
4547;SDS011;2286;51.570;7.090;2022-09-09T14:25:48;2.60;;;1.60;;
4547;SDS011;2286;51.570;7.090;2022-09-09T14:28:15;3.93;;;1.80;;
4547;SDS011;2286;51.570;7.090;2022-09-09T14:30:43;2.40;;;1.47;;
4547;SDS011;2286;51.570;7.090;2022-09-09T14:33:11;1.83;;;1.40;;
4547;SDS011;2286;51.570;7.090;2022-09-09T14:35:39;2.23;;;1.50;;
4547;SDS011;2286;51.570;7.090;2022-09-09T14:38:07;2.87;;;1.60;;
4547;SDS011;2286;51.570;7.090;2022-09-09T14:40:35;2.37;;;1.40;;
4547;SDS011;2286;51.570;7.090;2022-09-09T14:43:04;2.57;;;1.40;;
4547;SDS011;2286;51.570;7.090;2022-09-09T14:45:31;2.67;;;1.30;;
4547;SDS011;2286;51.570;7.090;2022-09-09T14:47:58;1.93;;;1.17;;
4547;SDS011;2286;51.570;7.090;2022-09-09T14:50:26;2.53;;;1.40;;
4547;SDS011;2286;51.570;7.090;2022-09-09T14:52:53;3.20;;;1.50;;
4547;SDS011;2286;51.570;7.090;2022-09-09T14:55:20;4.30;;;1.13;;
4547;SDS011;2286;51.570;7.090;2022-09-09T14:57:48;2.60;;;1.40;;
4547;SDS011;2286;51.570;7.090;2022-09-09T15:00:17;2.87;;;1.10;;
4547;SDS011;2286;51.570;7.090;2022-09-09T15:02:44;3.10;;;1.40;;
4547;SDS011;2286;51.570;7.090;2022-09-09T15:05:11;2.50;;;1.27;;
4547;SDS011;2286;51.570;7.090;2022-09-09T15:07:38;2.83;;;1.30;;
4547;SDS011;2286;51.570;7.090;2022-09-09T15:10:05;3.00;;;1.30;;
4547;SDS011;2286;51.570;7.090;2022-09-09T15:12:33;13.53;;;2.60;;
4547;SDS011;2286;51.570;7.090;2022-09-09T15:15:00;4.30;;;2.10;;
4547;SDS011;2286;51.570;7.090;2022-09-09T15:17:30;3.03;;;1.30;;
4547;SDS011;2286;51.570;7.090;2022-09-09T15:19:58;2.53;;;1.27;;
4547;SDS011;2286;51.570;7.090;2022-09-09T15:22:25;4.53;;;1.17;;
4547;SDS011;2286;51.570;7.090;2022-09-09T15:24:52;2.13;;;1.00;;
4547;SDS011;2286;51.570;7.090;2022-09-09T15:27:19;1.80;;;0.87;;
4547;SDS011;2286;51.570;7.090;2022-09-09T15:29:48;1.27;;;0.80;;
4547;SDS011;2286;51.570;7.090;2022-09-09T15:32:16;1.37;;;1.00;;
4547;SDS011;2286;51.570;7.090;2022-09-09T15:34:45;1.20;;;1.03;;
4547;SDS011;2286;51.570;7.090;2022-09-09T15:37:13;3.30;;;1.00;;
4547;SDS011;2286;51.570;7.090;2022-09-09T15:39:40;4.63;;;1.10;;
4547;SDS011;2286;51.570;7.090;2022-09-09T15:42:07;1.73;;;1.10;;
4547;SDS011;2286;51.570;7.090;2022-09-09T15:44:38;6.07;;;1.93;;
4547;SDS011;2286;51.570;7.090;2022-09-09T15:47:07;3.73;;;1.60;;
4547;SDS011;2286;51.570;7.090;2022-09-09T15:49:37;2.30;;;1.27;;